sensor_id;sensor_type;location;lat;lon;timestamp;P1;P2;P0
75946;PMS5003;64628;50.104;14.614;2023-08-01T00:00:43;8;6;
75946;PMS5003;64628;50.104;14.614;2023-08-01T00:03:13;11;9;
75946;PMS5003;64628;50.104;14.614;2023-08-01T00:05:33;6;6;
75946;PMS5003;64628;50.104;14.614;2023-08-01T00:07:58;9;8;
75946;PMS5003;64628;50.104;14.614;2023-08-01T00:10:22;7;7;
75946;PMS5003;64628;50.104;14.614;2023-08-01T00:12:52;7;7;
75946;PMS5003;64628;50.104;14.614;2023-08-01T00:15:17;10;7;
75946;PMS5003;64628;50.104;14.614;2023-08-01T00:17:37;13;11;
75946;PMS5003;64628;50.104;14.614;2023-08-01T00:20:03;9;6;
75946;PMS5003;64628;50.104;14.614;2023-08-01T00:22:33;11;9;
75946;PMS5003;64628;50.104;14.614;2023-08-01T00:24:52;9;7;
75946;PMS5003;64628;50.104;14.614;2023-08-01T00:27:23;8;7;
75946;PMS5003;64628;50.104;14.614;2023-08-01T00:29:42;9;8;
75946;PMS5003;64628;50.104;14.614;2023-08-01T00:32:08;10;7;
75946;PMS5003;64628;50.104;14.614;2023-08-01T00:34:33;11;10;
75946;PMS5003;64628;50.104;14.614;2023-08-01T00:36:58;8;6;
75946;PMS5003;64628;50.104;14.614;2023-08-01T00:39:23;12;9;
75946;PMS5003;64628;50.104;14.614;2023-08-01T00:41:56;9;8;
75946;PMS5003;64628;50.104;14.614;2023-08-01T00:44:20;8;8;
75946;PMS5003;64628;50.104;14.614;2023-08-01T00:46:44;10;9;
75946;PMS5003;64628;50.104;14.614;2023-08-01T00:49:08;10;10;
75946;PMS5003;64628;50.104;14.614;2023-08-01T00:51:29;19;18;
75946;PMS5003;64628;50.104;14.614;2023-08-01T00:53:53;9;8;
75946;PMS5003;64628;50.104;14.614;2023-08-01T00:56:22;13;12;
75946;PMS5003;64628;50.104;14.614;2023-08-01T01:01:09;10;9;
75946;PMS5003;64628;50.104;14.614;2023-08-01T01:03:35;9;9;
75946;PMS5003;64628;50.104;14.614;2023-08-01T01:06:01;9;8;
75946;PMS5003;64628;50.104;14.614;2023-08-01T01:08:30;10;10;
75946;PMS5003;64628;50.104;14.614;2023-08-01T01:10:51;11;10;
75946;PMS5003;64628;50.104;14.614;2023-08-01T01:13:17;12;9;
75946;PMS5003;64628;50.104;14.614;2023-08-01T01:15:46;12;10;
75946;PMS5003;64628;50.104;14.614;2023-08-01T01:18:08;12;12;
75946;PMS5003;64628;50.104;14.614;2023-08-01T01:20:33;9;8;
75946;PMS5003;64628;50.104;14.614;2023-08-01T01:22:58;10;8;
75946;PMS5003;64628;50.104;14.614;2023-08-01T01:25:23;7;7;
75946;PMS5003;64628;50.104;14.614;2023-08-01T01:27:49;9;9;
75946;PMS5003;64628;50.104;14.614;2023-08-01T01:30:14;11;11;
75946;PMS5003;64628;50.104;14.614;2023-08-01T01:32:38;12;10;
75946;PMS5003;64628;50.104;14.614;2023-08-01T01:35:03;11;11;
75946;PMS5003;64628;50.104;14.614;2023-08-01T01:37:29;10;9;
75946;PMS5003;64628;50.104;14.614;2023-08-01T01:40:00;11;10;
75946;PMS5003;64628;50.104;14.614;2023-08-01T01:42:19;11;9;
75946;PMS5003;64628;50.104;14.614;2023-08-01T01:44:47;13;12;
75946;PMS5003;64628;50.104;14.614;2023-08-01T01:47:10;11;10;
75946;PMS5003;64628;50.104;14.614;2023-08-01T01:49:34;11;9;
75946;PMS5003;64628;50.104;14.614;2023-08-01T01:52:01;11;8;
75946;PMS5003;64628;50.104;14.614;2023-08-01T01:54:25;14;10;
75946;PMS5003;64628;50.104;14.614;2023-08-01T01:56:50;11;8;
75946;PMS5003;64628;50.104;14.614;2023-08-01T01:59:16;10;9;
75946;PMS5003;64628;50.104;14.614;2023-08-01T02:01:42;13;12;
75946;PMS5003;64628;50.104;14.614;2023-08-01T02:04:06;10;10;
75946;PMS5003;64628;50.104;14.614;2023-08-01T02:06:33;13;12;
75946;PMS5003;64628;50.104;14.614;2023-08-01T02:08:57;11;10;
75946;PMS5003;64628;50.104;14.614;2023-08-01T02:11:23;14;14;
75946;PMS5003;64628;50.104;14.614;2023-08-01T02:13:48;9;9;
75946;PMS5003;64628;50.104;14.614;2023-08-01T02:16:19;8;8;
75946;PMS5003;64628;50.104;14.614;2023-08-01T02:18:38;8;8;
75946;PMS5003;64628;50.104;14.614;2023-08-01T02:21:03;10;10;
75946;PMS5003;64628;50.104;14.614;2023-08-01T02:25:53;8;8;
75946;PMS5003;64628;50.104;14.614;2023-08-01T02:28:19;13;13;
75946;PMS5003;64628;50.104;14.614;2023-08-01T02:30:44;9;9;
75946;PMS5003;64628;50.104;14.614;2023-08-01T02:33:09;11;10;
75946;PMS5003;64628;50.104;14.614;2023-08-01T02:35:35;10;10;
75946;PMS5003;64628;50.104;14.614;2023-08-01T02:38:00;10;8;
75946;PMS5003;64628;50.104;14.614;2023-08-01T02:40:26;11;9;
75946;PMS5003;64628;50.104;14.614;2023-08-01T02:42:51;7;7;
75946;PMS5003;64628;50.104;14.614;2023-08-01T02:45:16;11;8;
75946;PMS5003;64628;50.104;14.614;2023-08-01T02:47:41;9;9;
75946;PMS5003;64628;50.104;14.614;2023-08-01T02:50:12;8;8;
75946;PMS5003;64628;50.104;14.614;2023-08-01T02:52:32;12;10;
75946;PMS5003;64628;50.104;14.614;2023-08-01T02:54:58;11;11;
75946;PMS5003;64628;50.104;14.614;2023-08-01T02:57:23;8;7;
75946;PMS5003;64628;50.104;14.614;2023-08-01T02:59:52;9;9;
75946;PMS5003;64628;50.104;14.614;2023-08-01T03:02:18;8;8;
75946;PMS5003;64628;50.104;14.614;2023-08-01T03:04:39;7;7;
75946;PMS5003;64628;50.104;14.614;2023-08-01T03:07:05;9;9;
75946;PMS5003;64628;50.104;14.614;2023-08-01T03:09:32;11;10;
75946;PMS5003;64628;50.104;14.614;2023-08-01T03:11:55;14;13;
75946;PMS5003;64628;50.104;14.614;2023-08-01T03:14:20;25;25;
75946;PMS5003;64628;50.104;14.614;2023-08-01T03:16:45;52;51;
75946;PMS5003;64628;50.104;14.614;2023-08-01T03:21:38;82;80;
75946;PMS5003;64628;50.104;14.614;2023-08-01T03:24:03;53;53;
75946;PMS5003;64628;50.104;14.614;2023-08-01T03:26:28;83;82;
75946;PMS5003;64628;50.104;14.614;2023-08-01T03:28:53;71;70;
75946;PMS5003;64628;50.104;14.614;2023-08-01T03:31:19;18;17;
75946;PMS5003;64628;50.104;14.614;2023-08-01T03:33:44;54;52;
75946;PMS5003;64628;50.104;14.614;2023-08-01T03:36:09;106;106;
75946;PMS5003;64628;50.104;14.614;2023-08-01T03:38:39;17;16;
75946;PMS5003;64628;50.104;14.614;2023-08-01T03:40:59;29;29;
75946;PMS5003;64628;50.104;14.614;2023-08-01T03:43:25;34;34;
75946;PMS5003;64628;50.104;14.614;2023-08-01T03:45:51;40;37;
75946;PMS5003;64628;50.104;14.614;2023-08-01T03:48:16;29;29;
75946;PMS5003;64628;50.104;14.614;2023-08-01T03:50:40;53;53;
75946;PMS5003;64628;50.104;14.614;2023-08-01T03:53:06;39;37;
75946;PMS5003;64628;50.104;14.614;2023-08-01T03:55:31;41;39;
75946;PMS5003;64628;50.104;14.614;2023-08-01T03:57:58;36;36;
75946;PMS5003;64628;50.104;14.614;2023-08-01T04:00:23;56;54;
75946;PMS5003;64628;50.104;14.614;2023-08-01T04:02:48;37;31;
75946;PMS5003;64628;50.104;14.614;2023-08-01T04:05:14;33;33;
75946;PMS5003;64628;50.104;14.614;2023-08-01T04:07:39;31;29;
75946;PMS5003;64628;50.104;14.614;2023-08-01T04:10:07;32;27;
75946;PMS5003;64628;50.104;14.614;2023-08-01T04:15:01;38;36;
75946;PMS5003;64628;50.104;14.614;2023-08-01T04:17:22;25;23;
75946;PMS5003;64628;50.104;14.614;2023-08-01T04:19:47;32;32;
75946;PMS5003;64628;50.104;14.614;2023-08-01T04:22:13;38;35;
75946;PMS5003;64628;50.104;14.614;2023-08-01T04:24:37;33;31;
75946;PMS5003;64628;50.104;14.614;2023-08-01T04:27:03;28;28;
75946;PMS5003;64628;50.104;14.614;2023-08-01T04:29:28;27;26;
75946;PMS5003;64628;50.104;14.614;2023-08-01T04:31:53;34;32;
75946;PMS5003;64628;50.104;14.614;2023-08-01T04:34:24;26;23;
75946;PMS5003;64628;50.104;14.614;2023-08-01T04:36:46;42;42;
75946;PMS5003;64628;50.104;14.614;2023-08-01T04:39:11;40;36;
75946;PMS5003;64628;50.104;14.614;2023-08-01T04:41:42;46;42;
75946;PMS5003;64628;50.104;14.614;2023-08-01T04:44:02;41;41;
75946;PMS5003;64628;50.104;14.614;2023-08-01T04:46:36;35;35;
75946;PMS5003;64628;50.104;14.614;2023-08-01T04:48:51;35;35;
75946;PMS5003;64628;50.104;14.614;2023-08-01T04:51:17;34;34;
75946;PMS5003;64628;50.104;14.614;2023-08-01T04:53:42;33;32;
75946;PMS5003;64628;50.104;14.614;2023-08-01T04:56:07;35;34;
75946;PMS5003;64628;50.104;14.614;2023-08-01T05:00:58;46;46;
75946;PMS5003;64628;50.104;14.614;2023-08-01T05:03:23;23;23;
75946;PMS5003;64628;50.104;14.614;2023-08-01T05:05:50;45;45;
75946;PMS5003;64628;50.104;14.614;2023-08-01T05:08:15;50;49;
75946;PMS5003;64628;50.104;14.614;2023-08-01T05:10:40;52;51;
75946;PMS5003;64628;50.104;14.614;2023-08-01T05:13:15;48;47;
75946;PMS5003;64628;50.104;14.614;2023-08-01T05:15:33;24;23;
75946;PMS5003;64628;50.104;14.614;2023-08-01T05:18:01;41;41;
75946;PMS5003;64628;50.104;14.614;2023-08-01T05:20:22;14;12;
75946;PMS5003;64628;50.104;14.614;2023-08-01T05:22:47;48;48;
75946;PMS5003;64628;50.104;14.614;2023-08-01T05:25:13;48;47;
75946;PMS5003;64628;50.104;14.614;2023-08-01T05:27:39;28;28;
75946;PMS5003;64628;50.104;14.614;2023-08-01T05:30:06;66;64;
75946;PMS5003;64628;50.104;14.614;2023-08-01T05:32:30;37;37;
75946;PMS5003;64628;50.104;14.614;2023-08-01T05:35:01;50;48;
75946;PMS5003;64628;50.104;14.614;2023-08-01T05:37:21;55;53;
75946;PMS5003;64628;50.104;14.614;2023-08-01T05:39:47;74;74;
75946;PMS5003;64628;50.104;14.614;2023-08-01T05:42:12;23;19;
75946;PMS5003;64628;50.104;14.614;2023-08-01T05:44:38;13;12;
75946;PMS5003;64628;50.104;14.614;2023-08-01T05:47:04;13;12;
75946;PMS5003;64628;50.104;14.614;2023-08-01T05:49:30;16;16;
75946;PMS5003;64628;50.104;14.614;2023-08-01T05:51:54;20;20;
75946;PMS5003;64628;50.104;14.614;2023-08-01T05:54:20;10;9;
75946;PMS5003;64628;50.104;14.614;2023-08-01T05:56:45;13;12;
75946;PMS5003;64628;50.104;14.614;2023-08-01T05:59:10;11;11;
75946;PMS5003;64628;50.104;14.614;2023-08-01T06:01:42;10;10;
75946;PMS5003;64628;50.104;14.614;2023-08-01T06:04:01;8;8;
75946;PMS5003;64628;50.104;14.614;2023-08-01T06:06:26;11;8;
75946;PMS5003;64628;50.104;14.614;2023-08-01T06:08:51;9;9;
75946;PMS5003;64628;50.104;14.614;2023-08-01T06:11:16;10;9;
75946;PMS5003;64628;50.104;14.614;2023-08-01T06:13:42;8;7;
75946;PMS5003;64628;50.104;14.614;2023-08-01T06:16:07;8;8;
75946;PMS5003;64628;50.104;14.614;2023-08-01T06:18:31;9;9;
75946;PMS5003;64628;50.104;14.614;2023-08-01T06:20:57;11;11;
75946;PMS5003;64628;50.104;14.614;2023-08-01T06:23:22;9;7;
75946;PMS5003;64628;50.104;14.614;2023-08-01T06:25:48;10;8;
75946;PMS5003;64628;50.104;14.614;2023-08-01T06:28:13;10;10;
75946;PMS5003;64628;50.104;14.614;2023-08-01T06:30:37;11;10;
75946;PMS5003;64628;50.104;14.614;2023-08-01T06:33:07;7;7;
75946;PMS5003;64628;50.104;14.614;2023-08-01T06:35:27;7;6;
75946;PMS5003;64628;50.104;14.614;2023-08-01T06:37:53;10;8;
75946;PMS5003;64628;50.104;14.614;2023-08-01T06:40:17;8;7;
75946;PMS5003;64628;50.104;14.614;2023-08-01T06:42:43;9;9;
75946;PMS5003;64628;50.104;14.614;2023-08-01T06:45:08;7;7;
75946;PMS5003;64628;50.104;14.614;2023-08-01T06:47:33;8;7;
75946;PMS5003;64628;50.104;14.614;2023-08-01T06:49:58;8;7;
75946;PMS5003;64628;50.104;14.614;2023-08-01T06:52:23;8;8;
75946;PMS5003;64628;50.104;14.614;2023-08-01T06:54:48;9;7;
75946;PMS5003;64628;50.104;14.614;2023-08-01T06:57:13;9;6;
75946;PMS5003;64628;50.104;14.614;2023-08-01T06:59:40;6;6;
75946;PMS5003;64628;50.104;14.614;2023-08-01T07:02:04;8;8;
75946;PMS5003;64628;50.104;14.614;2023-08-01T07:04:30;6;6;
75946;PMS5003;64628;50.104;14.614;2023-08-01T07:06:56;5;5;
75946;PMS5003;64628;50.104;14.614;2023-08-01T07:09:19;7;6;
75946;PMS5003;64628;50.104;14.614;2023-08-01T07:11:49;5;5;
75946;PMS5003;64628;50.104;14.614;2023-08-01T07:14:14;8;5;
75946;PMS5003;64628;50.104;14.614;2023-08-01T07:16:34;6;6;
75946;PMS5003;64628;50.104;14.614;2023-08-01T07:18:59;6;6;
75946;PMS5003;64628;50.104;14.614;2023-08-01T07:21:24;8;8;
75946;PMS5003;64628;50.104;14.614;2023-08-01T07:23:49;8;8;
75946;PMS5003;64628;50.104;14.614;2023-08-01T07:26:14;6;6;
75946;PMS5003;64628;50.104;14.614;2023-08-01T07:28:40;8;8;
75946;PMS5003;64628;50.104;14.614;2023-08-01T07:31:07;11;9;
75946;PMS5003;64628;50.104;14.614;2023-08-01T07:33:31;11;8;
75946;PMS5003;64628;50.104;14.614;2023-08-01T07:35:55;7;7;
75946;PMS5003;64628;50.104;14.614;2023-08-01T07:38:21;8;6;
75946;PMS5003;64628;50.104;14.614;2023-08-01T07:40:46;8;7;
75946;PMS5003;64628;50.104;14.614;2023-08-01T07:43:11;7;7;
75946;PMS5003;64628;50.104;14.614;2023-08-01T07:45:36;10;9;
75946;PMS5003;64628;50.104;14.614;2023-08-01T07:48:01;10;6;
75946;PMS5003;64628;50.104;14.614;2023-08-01T07:50:27;6;6;
75946;PMS5003;64628;50.104;14.614;2023-08-01T07:52:51;8;8;
75946;PMS5003;64628;50.104;14.614;2023-08-01T07:55:17;9;9;
75946;PMS5003;64628;50.104;14.614;2023-08-01T07:57:41;8;7;
75946;PMS5003;64628;50.104;14.614;2023-08-01T08:00:07;8;7;
75946;PMS5003;64628;50.104;14.614;2023-08-01T08:02:33;7;7;
75946;PMS5003;64628;50.104;14.614;2023-08-01T08:04:58;11;8;
75946;PMS5003;64628;50.104;14.614;2023-08-01T08:07:23;10;9;
75946;PMS5003;64628;50.104;14.614;2023-08-01T08:09:48;7;7;
75946;PMS5003;64628;50.104;14.614;2023-08-01T08:12:13;10;8;
75946;PMS5003;64628;50.104;14.614;2023-08-01T08:14:39;7;7;
75946;PMS5003;64628;50.104;14.614;2023-08-01T08:17:04;8;8;
75946;PMS5003;64628;50.104;14.614;2023-08-01T08:19:29;10;7;
75946;PMS5003;64628;50.104;14.614;2023-08-01T08:21:54;11;8;
75946;PMS5003;64628;50.104;14.614;2023-08-01T08:24:19;9;8;
75946;PMS5003;64628;50.104;14.614;2023-08-01T08:26:44;9;7;
75946;PMS5003;64628;50.104;14.614;2023-08-01T08:29:10;11;7;
75946;PMS5003;64628;50.104;14.614;2023-08-01T08:31:34;7;7;
75946;PMS5003;64628;50.104;14.614;2023-08-01T08:33:59;9;7;
75946;PMS5003;64628;50.104;14.614;2023-08-01T08:36:24;9;7;
75946;PMS5003;64628;50.104;14.614;2023-08-01T08:38:49;8;8;
75946;PMS5003;64628;50.104;14.614;2023-08-01T08:41:14;7;7;
75946;PMS5003;64628;50.104;14.614;2023-08-01T08:43:39;12;10;
75946;PMS5003;64628;50.104;14.614;2023-08-01T08:46:05;12;12;
75946;PMS5003;64628;50.104;14.614;2023-08-01T08:48:30;6;6;
75946;PMS5003;64628;50.104;14.614;2023-08-01T08:50:56;6;6;
75946;PMS5003;64628;50.104;14.614;2023-08-01T08:53:20;8;6;
75946;PMS5003;64628;50.104;14.614;2023-08-01T08:55:45;7;6;
75946;PMS5003;64628;50.104;14.614;2023-08-01T08:58:11;8;6;
75946;PMS5003;64628;50.104;14.614;2023-08-01T09:00:36;7;5;
75946;PMS5003;64628;50.104;14.614;2023-08-01T09:03:01;5;5;
75946;PMS5003;64628;50.104;14.614;2023-08-01T09:05:27;5;5;
75946;PMS5003;64628;50.104;14.614;2023-08-01T09:07:51;6;6;
75946;PMS5003;64628;50.104;14.614;2023-08-01T09:10:16;9;9;
75946;PMS5003;64628;50.104;14.614;2023-08-01T09:12:41;7;5;
75946;PMS5003;64628;50.104;14.614;2023-08-01T09:15:07;7;7;
75946;PMS5003;64628;50.104;14.614;2023-08-01T09:17:32;8;6;
75946;PMS5003;64628;50.104;14.614;2023-08-01T09:22:23;6;6;
75946;PMS5003;64628;50.104;14.614;2023-08-01T09:24:51;8;7;
75946;PMS5003;64628;50.104;14.614;2023-08-01T09:27:13;7;6;
75946;PMS5003;64628;50.104;14.614;2023-08-01T09:29:38;6;6;
75946;PMS5003;64628;50.104;14.614;2023-08-01T09:34:28;9;7;
75946;PMS5003;64628;50.104;14.614;2023-08-01T09:36:57;5;5;
75946;PMS5003;64628;50.104;14.614;2023-08-01T09:39:19;9;6;
75946;PMS5003;64628;50.104;14.614;2023-08-01T09:41:44;6;5;
75946;PMS5003;64628;50.104;14.614;2023-08-01T09:44:10;7;6;
75946;PMS5003;64628;50.104;14.614;2023-08-01T09:46:39;7;5;
75946;PMS5003;64628;50.104;14.614;2023-08-01T09:51:25;7;5;
75946;PMS5003;64628;50.104;14.614;2023-08-01T09:53:50;8;8;
75946;PMS5003;64628;50.104;14.614;2023-08-01T09:56:15;6;6;
75946;PMS5003;64628;50.104;14.614;2023-08-01T09:58:39;6;6;
75946;PMS5003;64628;50.104;14.614;2023-08-01T10:01:04;6;6;
75946;PMS5003;64628;50.104;14.614;2023-08-01T10:03:29;8;7;
75946;PMS5003;64628;50.104;14.614;2023-08-01T10:05:55;5;5;
75946;PMS5003;64628;50.104;14.614;2023-08-01T10:08:19;6;6;
75946;PMS5003;64628;50.104;14.614;2023-08-01T10:10:45;7;7;
75946;PMS5003;64628;50.104;14.614;2023-08-01T10:13:09;3;3;
75946;PMS5003;64628;50.104;14.614;2023-08-01T10:15:43;8;5;
75946;PMS5003;64628;50.104;14.614;2023-08-01T10:18:00;10;6;
75946;PMS5003;64628;50.104;14.614;2023-08-01T10:20:29;7;7;
75946;PMS5003;64628;50.104;14.614;2023-08-01T10:22:54;5;5;
75946;PMS5003;64628;50.104;14.614;2023-08-01T10:25:14;6;6;
75946;PMS5003;64628;50.104;14.614;2023-08-01T10:30:04;7;6;
75946;PMS5003;64628;50.104;14.614;2023-08-01T10:32:33;7;6;
75946;PMS5003;64628;50.104;14.614;2023-08-01T10:34:54;6;6;
75946;PMS5003;64628;50.104;14.614;2023-08-01T10:37:21;8;5;
75946;PMS5003;64628;50.104;14.614;2023-08-01T10:39:55;8;5;
75946;PMS5003;64628;50.104;14.614;2023-08-01T10:42:12;5;4;
75946;PMS5003;64628;50.104;14.614;2023-08-01T10:47:04;5;5;
75946;PMS5003;64628;50.104;14.614;2023-08-01T10:49:33;5;4;
75946;PMS5003;64628;50.104;14.614;2023-08-01T10:51:55;6;5;
75946;PMS5003;64628;50.104;14.614;2023-08-01T10:54:21;5;5;
75946;PMS5003;64628;50.104;14.614;2023-08-01T10:56:47;9;6;
75946;PMS5003;64628;50.104;14.614;2023-08-01T10:59:12;4;4;
75946;PMS5003;64628;50.104;14.614;2023-08-01T11:01:43;4;4;
75946;PMS5003;64628;50.104;14.614;2023-08-01T11:04:06;5;5;
75946;PMS5003;64628;50.104;14.614;2023-08-01T11:06:30;4;4;
75946;PMS5003;64628;50.104;14.614;2023-08-01T11:08:56;6;5;
75946;PMS5003;64628;50.104;14.614;2023-08-01T11:11:22;4;4;
75946;PMS5003;64628;50.104;14.614;2023-08-01T11:13:51;4;4;
75946;PMS5003;64628;50.104;14.614;2023-08-01T11:16:13;4;4;
75946;PMS5003;64628;50.104;14.614;2023-08-01T11:18:40;7;4;
75946;PMS5003;64628;50.104;14.614;2023-08-01T11:21:06;4;4;
75946;PMS5003;64628;50.104;14.614;2023-08-01T11:23:31;8;5;
75946;PMS5003;64628;50.104;14.614;2023-08-01T11:25:57;7;5;
75946;PMS5003;64628;50.104;14.614;2023-08-01T11:28:23;6;5;
75946;PMS5003;64628;50.104;14.614;2023-08-01T11:30:54;5;4;
75946;PMS5003;64628;50.104;14.614;2023-08-01T11:33:14;3;3;
75946;PMS5003;64628;50.104;14.614;2023-08-01T11:35:40;5;5;
75946;PMS5003;64628;50.104;14.614;2023-08-01T11:38:06;6;4;
75946;PMS5003;64628;50.104;14.614;2023-08-01T11:40:32;5;4;
75946;PMS5003;64628;50.104;14.614;2023-08-01T11:42:58;5;4;
75946;PMS5003;64628;50.104;14.614;2023-08-01T11:45:33;4;4;
75946;PMS5003;64628;50.104;14.614;2023-08-01T11:47:54;4;3;
75946;PMS5003;64628;50.104;14.614;2023-08-01T11:50:23;5;4;
75946;PMS5003;64628;50.104;14.614;2023-08-01T11:52:47;4;4;
75946;PMS5003;64628;50.104;14.614;2023-08-01T11:55:17;2;2;
75946;PMS5003;64628;50.104;14.614;2023-08-01T11:57:33;5;5;
75946;PMS5003;64628;50.104;14.614;2023-08-01T11:59:58;4;4;
75946;PMS5003;64628;50.104;14.614;2023-08-01T12:02:24;6;4;
75946;PMS5003;64628;50.104;14.614;2023-08-01T12:04:50;3;3;
75946;PMS5003;64628;50.104;14.614;2023-08-01T12:07:15;3;3;
75946;PMS5003;64628;50.104;14.614;2023-08-01T12:09:41;5;5;
75946;PMS5003;64628;50.104;14.614;2023-08-01T12:12:10;5;3;
75946;PMS5003;64628;50.104;14.614;2023-08-01T12:14:33;34;34;
75946;PMS5003;64628;50.104;14.614;2023-08-01T12:16:58;37;35;
75946;PMS5003;64628;50.104;14.614;2023-08-01T12:19:24;14;13;
75946;PMS5003;64628;50.104;14.614;2023-08-01T12:21:50;7;7;
75946;PMS5003;64628;50.104;14.614;2023-08-01T12:26:41;2;2;
75946;PMS5003;64628;50.104;14.614;2023-08-01T12:29:07;5;5;
75946;PMS5003;64628;50.104;14.614;2023-08-01T12:31:32;4;4;
75946;PMS5003;64628;50.104;14.614;2023-08-01T12:33:59;7;6;
75946;PMS5003;64628;50.104;14.614;2023-08-01T12:36:24;9;9;
75946;PMS5003;64628;50.104;14.614;2023-08-01T12:38:50;8;8;
75946;PMS5003;64628;50.104;14.614;2023-08-01T12:41:16;4;4;
75946;PMS5003;64628;50.104;14.614;2023-08-01T12:43:41;3;3;
75946;PMS5003;64628;50.104;14.614;2023-08-01T12:46:08;2;2;
75946;PMS5003;64628;50.104;14.614;2023-08-01T12:48:43;4;3;
75946;PMS5003;64628;50.104;14.614;2023-08-01T12:51:04;4;4;
75946;PMS5003;64628;50.104;14.614;2023-08-01T12:53:24;2;2;
75946;PMS5003;64628;50.104;14.614;2023-08-01T12:55:51;4;4;
75946;PMS5003;64628;50.104;14.614;2023-08-01T12:58:16;2;2;
75946;PMS5003;64628;50.104;14.614;2023-08-01T13:00:42;3;3;
75946;PMS5003;64628;50.104;14.614;2023-08-01T13:03:08;6;5;
75946;PMS5003;64628;50.104;14.614;2023-08-01T13:05:33;3;3;
75946;PMS5003;64628;50.104;14.614;2023-08-01T13:08:04;2;2;
75946;PMS5003;64628;50.104;14.614;2023-08-01T13:10:25;3;3;
75946;PMS5003;64628;50.104;14.614;2023-08-01T13:12:51;3;3;
75946;PMS5003;64628;50.104;14.614;2023-08-01T13:15:16;3;3;
75946;PMS5003;64628;50.104;14.614;2023-08-01T13:17:42;3;3;
75946;PMS5003;64628;50.104;14.614;2023-08-01T13:20:08;4;2;
75946;PMS5003;64628;50.104;14.614;2023-08-01T13:22:35;3;3;
75946;PMS5003;64628;50.104;14.614;2023-08-01T13:24:59;4;3;
75946;PMS5003;64628;50.104;14.614;2023-08-01T13:27:25;2;2;
75946;PMS5003;64628;50.104;14.614;2023-08-01T13:29:51;2;2;
75946;PMS5003;64628;50.104;14.614;2023-08-01T13:32:17;4;3;
75946;PMS5003;64628;50.104;14.614;2023-08-01T13:34:42;3;3;
75946;PMS5003;64628;50.104;14.614;2023-08-01T13:37:08;5;2;
75946;PMS5003;64628;50.104;14.614;2023-08-01T13:39:34;2;2;
75946;PMS5003;64628;50.104;14.614;2023-08-01T13:42:01;2;2;
75946;PMS5003;64628;50.104;14.614;2023-08-01T13:44:25;5;4;
75946;PMS5003;64628;50.104;14.614;2023-08-01T13:46:51;4;3;
75946;PMS5003;64628;50.104;14.614;2023-08-01T13:49:18;2;2;
75946;PMS5003;64628;50.104;14.614;2023-08-01T13:51:44;2;2;
75946;PMS5003;64628;50.104;14.614;2023-08-01T13:54:08;2;2;
75946;PMS5003;64628;50.104;14.614;2023-08-01T13:56:39;3;3;
75946;PMS5003;64628;50.104;14.614;2023-08-01T13:59:00;0;0;
75946;PMS5003;64628;50.104;14.614;2023-08-01T14:01:25;2;2;
75946;PMS5003;64628;50.104;14.614;2023-08-01T14:03:51;5;4;
75946;PMS5003;64628;50.104;14.614;2023-08-01T14:06:17;3;3;
75946;PMS5003;64628;50.104;14.614;2023-08-01T14:08:48;3;3;
75946;PMS5003;64628;50.104;14.614;2023-08-01T14:11:09;5;5;
75946;PMS5003;64628;50.104;14.614;2023-08-01T14:13:47;3;3;
75946;PMS5003;64628;50.104;14.614;2023-08-01T14:16:05;5;4;
75946;PMS5003;64628;50.104;14.614;2023-08-01T14:18:26;4;3;
75946;PMS5003;64628;50.104;14.614;2023-08-01T14:20:52;3;3;
75946;PMS5003;64628;50.104;14.614;2023-08-01T14:23:17;4;4;
75946;PMS5003;64628;50.104;14.614;2023-08-01T14:25:43;4;4;
75946;PMS5003;64628;50.104;14.614;2023-08-01T14:28:09;4;4;
75946;PMS5003;64628;50.104;14.614;2023-08-01T14:30:34;4;3;
75946;PMS5003;64628;50.104;14.614;2023-08-01T14:33:00;5;5;
75946;PMS5003;64628;50.104;14.614;2023-08-01T14:35:31;3;3;
75946;PMS5003;64628;50.104;14.614;2023-08-01T14:37:57;6;5;
75946;PMS5003;64628;50.104;14.614;2023-08-01T14:40:24;6;3;
75946;PMS5003;64628;50.104;14.614;2023-08-01T14:42:44;5;5;
75946;PMS5003;64628;50.104;14.614;2023-08-01T14:45:09;5;4;
75946;PMS5003;64628;50.104;14.614;2023-08-01T14:47:35;2;2;
75946;PMS5003;64628;50.104;14.614;2023-08-01T14:50:01;2;2;
75946;PMS5003;64628;50.104;14.614;2023-08-01T14:52:34;5;4;
75946;PMS5003;64628;50.104;14.614;2023-08-01T14:54:52;4;3;
75946;PMS5003;64628;50.104;14.614;2023-08-01T14:57:18;6;4;
75946;PMS5003;64628;50.104;14.614;2023-08-01T14:59:44;4;4;
75946;PMS5003;64628;50.104;14.614;2023-08-01T15:02:10;2;2;
75946;PMS5003;64628;50.104;14.614;2023-08-01T15:04:36;3;2;
75946;PMS5003;64628;50.104;14.614;2023-08-01T15:07:01;4;4;
75946;PMS5003;64628;50.104;14.614;2023-08-01T15:09:27;3;2;
75946;PMS5003;64628;50.104;14.614;2023-08-01T15:11:55;4;4;
75946;PMS5003;64628;50.104;14.614;2023-08-01T15:14:19;4;4;
75946;PMS5003;64628;50.104;14.614;2023-08-01T15:16:45;4;2;
75946;PMS5003;64628;50.104;14.614;2023-08-01T15:19:12;4;3;
75946;PMS5003;64628;50.104;14.614;2023-08-01T15:21:37;4;3;
75946;PMS5003;64628;50.104;14.614;2023-08-01T15:24:02;3;3;
75946;PMS5003;64628;50.104;14.614;2023-08-01T15:26:28;4;3;
75946;PMS5003;64628;50.104;14.614;2023-08-01T15:28:59;4;4;
75946;PMS5003;64628;50.104;14.614;2023-08-01T15:31:25;3;3;
75946;PMS5003;64628;50.104;14.614;2023-08-01T15:33:50;4;4;
75946;PMS5003;64628;50.104;14.614;2023-08-01T15:36:12;3;3;
75946;PMS5003;64628;50.104;14.614;2023-08-01T15:38:38;4;4;
75946;PMS5003;64628;50.104;14.614;2023-08-01T15:41:14;4;3;
75946;PMS5003;64628;50.104;14.614;2023-08-01T15:43:29;3;3;
75946;PMS5003;64628;50.104;14.614;2023-08-01T15:45:55;6;5;
75946;PMS5003;64628;50.104;14.614;2023-08-01T15:48:22;3;3;
75946;PMS5003;64628;50.104;14.614;2023-08-01T15:50:47;2;2;
75946;PMS5003;64628;50.104;14.614;2023-08-01T15:53:12;2;2;
75946;PMS5003;64628;50.104;14.614;2023-08-01T15:55:38;4;3;
75946;PMS5003;64628;50.104;14.614;2023-08-01T15:58:04;3;3;
75946;PMS5003;64628;50.104;14.614;2023-08-01T16:00:36;1;1;
75946;PMS5003;64628;50.104;14.614;2023-08-01T16:02:56;3;3;
75946;PMS5003;64628;50.104;14.614;2023-08-01T16:05:21;2;2;
75946;PMS5003;64628;50.104;14.614;2023-08-01T16:07:47;4;4;
75946;PMS5003;64628;50.104;14.614;2023-08-01T16:10:19;2;2;
75946;PMS5003;64628;50.104;14.614;2023-08-01T16:12:44;4;3;
75946;PMS5003;64628;50.104;14.614;2023-08-01T16:15:07;3;3;
75946;PMS5003;64628;50.104;14.614;2023-08-01T16:17:30;4;4;
75946;PMS5003;64628;50.104;14.614;2023-08-01T16:19:56;4;3;
75946;PMS5003;64628;50.104;14.614;2023-08-01T16:22:23;4;4;
75946;PMS5003;64628;50.104;14.614;2023-08-01T16:24:48;2;2;
75946;PMS5003;64628;50.104;14.614;2023-08-01T16:27:14;5;4;
75946;PMS5003;64628;50.104;14.614;2023-08-01T16:29:40;4;4;
75946;PMS5003;64628;50.104;14.614;2023-08-01T16:32:05;3;3;
75946;PMS5003;64628;50.104;14.614;2023-08-01T16:34:31;4;4;
75946;PMS5003;64628;50.104;14.614;2023-08-01T16:36:57;3;2;